Roundup, MT

8:50 PM MDT on September 14, 2014 (GMT -0600)
Jordan | Change Station
CLOSE
Current Station
Airport
Location: Jordan,
Elevation: 2661 ft
Nearby Weather Stations

Elev 2661 ft 47.33 °N, 106.95 °W | Updated 2 minutes ago

Clear
Clear
45 °F
Feels Like 44 °F
N
4
Wind Variable Wind from East
Gusts mph

Today
High -- | Low -- °F
--% Chance of Precip.
Yesterday
High -- | Low -- °F
Precip. -- in
6:50 AM 7:27 PM
Waning Gibbous, 60% visible
Pressure 30.23 in
Visibility -9999.0 miles
Clouds
Windchill 44 °F
Dew Point 36 °F
Humidity 71%
Rainfall 0.00 in
Snow Depth Not available.
UV Not available.
Pollen 5.70 out of 12
Air Quality Not available.
Flu Activity Not available.
METAR KJDN 150248Z AUTO 09003KT 07/02 A3018 RMK AO1 SLP235 T00720022 53015

More Conditions Fewer Conditions

Pressure 30.23 in
Visibility -9999.0 miles
Clouds
Windchill 44 °F
Dew Point 36 °F
Humidity 71%
Rainfall 0.00 in
Snow Depth Not available.
UV Not available.
Pollen 5.70 out of 12
Air Quality Not available.
Flu Activity Not available.
METAR KJDN 150248Z AUTO 09003KT 07/02 A3018 RMK AO1 SLP235 T00720022 53015

More Conditions Fewer Conditions

10-Day Weather Forecast

Almanac

Astronomy

Sep. 14, 2014 Rise Set
Actual Time 6:50 AM MDT 7:27 PM MDT
Civil Twilight 6:20 AM MDT 7:57 PM MDT
Nautical Twilight 5:44 AM MDT 8:33 PM MDT
Astronomical Twilight 5:07 AM MDT 9:11 PM MDT
Moon 11:02 PM MDT (9/14) 1:19 PM MDT (9/14)
Length of Visible Light 13h 37m
Length of Day
12h 36m
Tomorrow will be 3m 15s shorter.
Waning Gibbous, 60% of the Moon is Illuminated
Today
Waning Gibbous
Sep 15
Last Quarter
Sep 24
New
Oct 1
First Quarter
Oct 8
Full

Today's Extremes

State Highs State Lows

Community

WunderPhotos

Upload Photos

1,753,385 photos uploaded!

Nearby

Snow Depth

Station Depth Elevation
Crystal Lake 0 in 6050 ft
Daisy Peak 0 in 7600 ft
Cole Creek 4 in 7850 ft
Burnt Mountain 0 in 5880 ft
South Fork Shields 0 in 8100 ft

Earthquake Activity

City Distance Mag. Time & Date
No recent earthquake activity has been reported nearby.
Minimum magnitude displayed is 2.5.

Coastal Water Temperatures

Place Temperature
No Stations Reporting

Nearby Weather Stations